sensor_id;sensor_type;location;lat;lon;timestamp;P1;durP1;ratioP1;P2;durP2;ratioP2
3781;SDS011;6881;49.962;7.718;2024-02-26T00:01:47;2.03;;;1.70;;
3781;SDS011;6881;49.962;7.718;2024-02-26T00:04:13;3.00;;;2.27;;
3781;SDS011;6881;49.962;7.718;2024-02-26T00:06:38;2.97;;;2.00;;
3781;SDS011;6881;49.962;7.718;2024-02-26T00:09:07;2.27;;;1.80;;
3781;SDS011;6881;49.962;7.718;2024-02-26T00:11:33;2.27;;;1.67;;
3781;SDS011;6881;49.962;7.718;2024-02-26T00:14:00;3.23;;;1.87;;
3781;SDS011;6881;49.962;7.718;2024-02-26T00:16:26;8.53;;;2.33;;
3781;SDS011;6881;49.962;7.718;2024-02-26T00:18:51;3.10;;;1.73;;
3781;SDS011;6881;49.962;7.718;2024-02-26T00:21:16;2.30;;;1.63;;
3781;SDS011;6881;49.962;7.718;2024-02-26T00:23:42;2.47;;;2.20;;
3781;SDS011;6881;49.962;7.718;2024-02-26T00:26:08;6.00;;;1.67;;
3781;SDS011;6881;49.962;7.718;2024-02-26T00:28:34;4.87;;;1.70;;
3781;SDS011;6881;49.962;7.718;2024-02-26T00:30:59;2.80;;;1.70;;
3781;SDS011;6881;49.962;7.718;2024-02-26T00:33:24;4.43;;;2.10;;
3781;SDS011;6881;49.962;7.718;2024-02-26T00:35:50;2.13;;;1.67;;
3781;SDS011;6881;49.962;7.718;2024-02-26T00:38:15;2.00;;;1.57;;
3781;SDS011;6881;49.962;7.718;2024-02-26T00:40:40;2.50;;;1.80;;
3781;SDS011;6881;49.962;7.718;2024-02-26T00:43:06;3.17;;;2.23;;
3781;SDS011;6881;49.962;7.718;2024-02-26T00:45:31;3.23;;;1.80;;
3781;SDS011;6881;49.962;7.718;2024-02-26T00:47:57;2.50;;;1.90;;
3781;SDS011;6881;49.962;7.718;2024-02-26T00:50:23;1.80;;;1.60;;
3781;SDS011;6881;49.962;7.718;2024-02-26T00:52:48;2.60;;;1.67;;
3781;SDS011;6881;49.962;7.718;2024-02-26T00:55:13;2.77;;;1.90;;
3781;SDS011;6881;49.962;7.718;2024-02-26T00:57:39;4.40;;;1.70;;
3781;SDS011;6881;49.962;7.718;2024-02-26T01:00:05;2.40;;;1.30;;
3781;SDS011;6881;49.962;7.718;2024-02-26T01:02:33;3.83;;;1.93;;
3781;SDS011;6881;49.962;7.718;2024-02-26T01:04:59;2.80;;;1.70;;
3781;SDS011;6881;49.962;7.718;2024-02-26T01:07:25;2.57;;;1.73;;
3781;SDS011;6881;49.962;7.718;2024-02-26T01:09:50;2.10;;;1.60;;
3781;SDS011;6881;49.962;7.718;2024-02-26T01:12:16;5.53;;;2.30;;
3781;SDS011;6881;49.962;7.718;2024-02-26T01:14:41;1.77;;;1.67;;
3781;SDS011;6881;49.962;7.718;2024-02-26T01:17:06;2.80;;;2.00;;
3781;SDS011;6881;49.962;7.718;2024-02-26T01:19:32;2.13;;;1.73;;
3781;SDS011;6881;49.962;7.718;2024-02-26T01:21:57;2.90;;;1.77;;
3781;SDS011;6881;49.962;7.718;2024-02-26T01:24:22;4.60;;;1.70;;
3781;SDS011;6881;49.962;7.718;2024-02-26T01:26:48;2.20;;;2.00;;
3781;SDS011;6881;49.962;7.718;2024-02-26T01:29:13;2.07;;;1.87;;
3781;SDS011;6881;49.962;7.718;2024-02-26T01:31:38;2.20;;;1.73;;
3781;SDS011;6881;49.962;7.718;2024-02-26T01:34:03;2.53;;;1.87;;
3781;SDS011;6881;49.962;7.718;2024-02-26T01:36:29;2.17;;;1.93;;
3781;SDS011;6881;49.962;7.718;2024-02-26T01:38:54;2.00;;;1.67;;
3781;SDS011;6881;49.962;7.718;2024-02-26T01:41:19;2.13;;;1.50;;
3781;SDS011;6881;49.962;7.718;2024-02-26T01:43:45;2.17;;;1.97;;
3781;SDS011;6881;49.962;7.718;2024-02-26T01:46:11;2.47;;;1.50;;
3781;SDS011;6881;49.962;7.718;2024-02-26T01:48:39;2.77;;;1.70;;
3781;SDS011;6881;49.962;7.718;2024-02-26T01:51:05;1.63;;;1.30;;
3781;SDS011;6881;49.962;7.718;2024-02-26T01:53:30;1.97;;;1.67;;
3781;SDS011;6881;49.962;7.718;2024-02-26T01:55:56;1.97;;;1.40;;
3781;SDS011;6881;49.962;7.718;2024-02-26T01:58:21;2.70;;;1.60;;
3781;SDS011;6881;49.962;7.718;2024-02-26T02:00:46;2.40;;;1.90;;
3781;SDS011;6881;49.962;7.718;2024-02-26T02:03:12;2.33;;;1.90;;
3781;SDS011;6881;49.962;7.718;2024-02-26T02:05:37;2.10;;;1.73;;
3781;SDS011;6881;49.962;7.718;2024-02-26T02:08:07;2.80;;;1.70;;
3781;SDS011;6881;49.962;7.718;2024-02-26T02:10:34;2.00;;;1.80;;
3781;SDS011;6881;49.962;7.718;2024-02-26T02:12:59;2.50;;;1.97;;
3781;SDS011;6881;49.962;7.718;2024-02-26T02:15:24;2.53;;;1.90;;
3781;SDS011;6881;49.962;7.718;2024-02-26T02:17:50;2.90;;;1.80;;
3781;SDS011;6881;49.962;7.718;2024-02-26T02:20:16;2.33;;;1.63;;
3781;SDS011;6881;49.962;7.718;2024-02-26T02:22:42;2.50;;;2.30;;
3781;SDS011;6881;49.962;7.718;2024-02-26T02:25:08;2.40;;;2.20;;
3781;SDS011;6881;49.962;7.718;2024-02-26T02:27:33;2.23;;;1.83;;
3781;SDS011;6881;49.962;7.718;2024-02-26T02:29:59;2.43;;;1.90;;
3781;SDS011;6881;49.962;7.718;2024-02-26T02:32:24;3.23;;;2.53;;
3781;SDS011;6881;49.962;7.718;2024-02-26T02:34:50;2.70;;;2.07;;
3781;SDS011;6881;49.962;7.718;2024-02-26T02:37:15;2.30;;;2.10;;
3781;SDS011;6881;49.962;7.718;2024-02-26T02:39:41;2.80;;;2.40;;
3781;SDS011;6881;49.962;7.718;2024-02-26T02:42:08;3.23;;;2.17;;
3781;SDS011;6881;49.962;7.718;2024-02-26T02:44:33;3.03;;;2.10;;
3781;SDS011;6881;49.962;7.718;2024-02-26T02:46:59;4.87;;;2.47;;
3781;SDS011;6881;49.962;7.718;2024-02-26T02:49:24;2.90;;;2.17;;
3781;SDS011;6881;49.962;7.718;2024-02-26T02:51:49;2.27;;;1.87;;
3781;SDS011;6881;49.962;7.718;2024-02-26T02:54:15;6.00;;;2.83;;
3781;SDS011;6881;49.962;7.718;2024-02-26T02:56:40;2.27;;;1.87;;
3781;SDS011;6881;49.962;7.718;2024-02-26T02:59:05;2.67;;;2.10;;
3781;SDS011;6881;49.962;7.718;2024-02-26T03:01:30;2.83;;;2.20;;
3781;SDS011;6881;49.962;7.718;2024-02-26T03:03:56;3.07;;;1.90;;
3781;SDS011;6881;49.962;7.718;2024-02-26T03:06:21;3.20;;;2.10;;
3781;SDS011;6881;49.962;7.718;2024-02-26T03:08:46;2.70;;;2.50;;
3781;SDS011;6881;49.962;7.718;2024-02-26T03:11:15;3.93;;;2.20;;
3781;SDS011;6881;49.962;7.718;2024-02-26T03:13:41;3.23;;;2.83;;
3781;SDS011;6881;49.962;7.718;2024-02-26T03:16:06;2.83;;;2.27;;
3781;SDS011;6881;49.962;7.718;2024-02-26T03:18:31;2.90;;;2.30;;
3781;SDS011;6881;49.962;7.718;2024-02-26T03:20:57;7.00;;;3.60;;
3781;SDS011;6881;49.962;7.718;2024-02-26T03:23:22;3.10;;;2.80;;
3781;SDS011;6881;49.962;7.718;2024-02-26T03:25:47;5.43;;;2.87;;
3781;SDS011;6881;49.962;7.718;2024-02-26T03:28:13;3.17;;;2.67;;
3781;SDS011;6881;49.962;7.718;2024-02-26T03:30:38;4.90;;;3.57;;
3781;SDS011;6881;49.962;7.718;2024-02-26T03:33:04;4.63;;;3.00;;
3781;SDS011;6881;49.962;7.718;2024-02-26T03:35:29;3.40;;;3.00;;
3781;SDS011;6881;49.962;7.718;2024-02-26T03:37:55;3.90;;;3.33;;
3781;SDS011;6881;49.962;7.718;2024-02-26T03:40:20;5.43;;;3.10;;
3781;SDS011;6881;49.962;7.718;2024-02-26T03:42:45;5.30;;;3.03;;
3781;SDS011;6881;49.962;7.718;2024-02-26T03:45:11;3.73;;;3.20;;
3781;SDS011;6881;49.962;7.718;2024-02-26T03:47:37;3.10;;;2.60;;
3781;SDS011;6881;49.962;7.718;2024-02-26T03:50:04;4.20;;;3.17;;
3781;SDS011;6881;49.962;7.718;2024-02-26T03:52:30;4.37;;;2.67;;
3781;SDS011;6881;49.962;7.718;2024-02-26T03:54:55;3.40;;;2.90;;
3781;SDS011;6881;49.962;7.718;2024-02-26T03:57:20;4.07;;;3.67;;
3781;SDS011;6881;49.962;7.718;2024-02-26T03:59:46;4.47;;;3.20;;
3781;SDS011;6881;49.962;7.718;2024-02-26T04:02:11;3.10;;;2.80;;
3781;SDS011;6881;49.962;7.718;2024-02-26T04:04:36;4.07;;;3.40;;
3781;SDS011;6881;49.962;7.718;2024-02-26T04:07:02;6.30;;;3.23;;
3781;SDS011;6881;49.962;7.718;2024-02-26T04:09:27;6.03;;;3.77;;
3781;SDS011;6881;49.962;7.718;2024-02-26T04:11:52;3.50;;;3.17;;
3781;SDS011;6881;49.962;7.718;2024-02-26T04:14:18;4.13;;;3.63;;
3781;SDS011;6881;49.962;7.718;2024-02-26T04:16:43;3.80;;;2.80;;
3781;SDS011;6881;49.962;7.718;2024-02-26T04:19:08;4.63;;;3.53;;
3781;SDS011;6881;49.962;7.718;2024-02-26T04:21:34;5.93;;;3.37;;
3781;SDS011;6881;49.962;7.718;2024-02-26T04:24:00;3.47;;;3.13;;
3781;SDS011;6881;49.962;7.718;2024-02-26T04:26:27;5.13;;;3.40;;
3781;SDS011;6881;49.962;7.718;2024-02-26T04:28:53;6.77;;;3.07;;
3781;SDS011;6881;49.962;7.718;2024-02-26T04:31:19;4.77;;;3.47;;
3781;SDS011;6881;49.962;7.718;2024-02-26T04:33:44;5.37;;;4.03;;
3781;SDS011;6881;49.962;7.718;2024-02-26T04:36:13;6.80;;;3.30;;
3781;SDS011;6881;49.962;7.718;2024-02-26T04:38:40;4.10;;;3.23;;
3781;SDS011;6881;49.962;7.718;2024-02-26T04:41:05;4.13;;;3.70;;
3781;SDS011;6881;49.962;7.718;2024-02-26T04:43:30;4.30;;;3.67;;
3781;SDS011;6881;49.962;7.718;2024-02-26T04:45:56;5.13;;;3.80;;
3781;SDS011;6881;49.962;7.718;2024-02-26T04:48:22;5.43;;;3.57;;
3781;SDS011;6881;49.962;7.718;2024-02-26T04:50:48;5.07;;;4.07;;
3781;SDS011;6881;49.962;7.718;2024-02-26T04:53:13;7.90;;;4.83;;
3781;SDS011;6881;49.962;7.718;2024-02-26T04:55:38;5.40;;;4.10;;
3781;SDS011;6881;49.962;7.718;2024-02-26T04:58:04;4.50;;;3.50;;
3781;SDS011;6881;49.962;7.718;2024-02-26T05:00:29;4.70;;;3.73;;
3781;SDS011;6881;49.962;7.718;2024-02-26T05:02:54;7.17;;;4.87;;
3781;SDS011;6881;49.962;7.718;2024-02-26T05:05:19;4.80;;;4.03;;
3781;SDS011;6881;49.962;7.718;2024-02-26T05:07:45;5.50;;;4.47;;
3781;SDS011;6881;49.962;7.718;2024-02-26T05:10:10;6.03;;;5.43;;
3781;SDS011;6881;49.962;7.718;2024-02-26T05:12:36;6.07;;;4.53;;
3781;SDS011;6881;49.962;7.718;2024-02-26T05:15:01;4.77;;;4.27;;
3781;SDS011;6881;49.962;7.718;2024-02-26T05:17:27;6.37;;;5.03;;
3781;SDS011;6881;49.962;7.718;2024-02-26T05:19:53;6.27;;;4.77;;
3781;SDS011;6881;49.962;7.718;2024-02-26T05:22:18;6.37;;;5.20;;
3781;SDS011;6881;49.962;7.718;2024-02-26T05:24:43;5.97;;;4.87;;
3781;SDS011;6881;49.962;7.718;2024-02-26T05:27:09;6.37;;;5.43;;
3781;SDS011;6881;49.962;7.718;2024-02-26T05:29:35;5.13;;;4.60;;
3781;SDS011;6881;49.962;7.718;2024-02-26T05:32:00;7.60;;;5.53;;
3781;SDS011;6881;49.962;7.718;2024-02-26T05:34:25;5.43;;;4.80;;
3781;SDS011;6881;49.962;7.718;2024-02-26T05:36:51;7.13;;;6.13;;
3781;SDS011;6881;49.962;7.718;2024-02-26T05:39:16;8.43;;;5.87;;
3781;SDS011;6881;49.962;7.718;2024-02-26T05:41:41;7.27;;;5.50;;
3781;SDS011;6881;49.962;7.718;2024-02-26T05:44:08;5.03;;;4.50;;
3781;SDS011;6881;49.962;7.718;2024-02-26T05:46:35;5.10;;;4.57;;
3781;SDS011;6881;49.962;7.718;2024-02-26T05:49:00;6.87;;;5.53;;
3781;SDS011;6881;49.962;7.718;2024-02-26T05:51:26;6.57;;;4.87;;
3781;SDS011;6881;49.962;7.718;2024-02-26T05:53:51;8.00;;;5.63;;
3781;SDS011;6881;49.962;7.718;2024-02-26T05:56:19;7.17;;;5.70;;
3781;SDS011;6881;49.962;7.718;2024-02-26T05:58:45;8.30;;;5.90;;
3781;SDS011;6881;49.962;7.718;2024-02-26T06:01:11;5.90;;;5.30;;
3781;SDS011;6881;49.962;7.718;2024-02-26T06:03:36;6.00;;;4.77;;
3781;SDS011;6881;49.962;7.718;2024-02-26T06:06:01;8.50;;;5.97;;
3781;SDS011;6881;49.962;7.718;2024-02-26T06:08:27;9.07;;;5.87;;
3781;SDS011;6881;49.962;7.718;2024-02-26T06:10:52;8.90;;;6.07;;
3781;SDS011;6881;49.962;7.718;2024-02-26T06:13:17;9.90;;;7.17;;
3781;SDS011;6881;49.962;7.718;2024-02-26T06:15:43;9.00;;;7.03;;
3781;SDS011;6881;49.962;7.718;2024-02-26T06:18:08;7.67;;;5.87;;
3781;SDS011;6881;49.962;7.718;2024-02-26T06:20:33;8.53;;;7.00;;
3781;SDS011;6881;49.962;7.718;2024-02-26T06:22:59;10.40;;;7.57;;
3781;SDS011;6881;49.962;7.718;2024-02-26T06:25:24;10.87;;;8.20;;
3781;SDS011;6881;49.962;7.718;2024-02-26T06:27:50;11.17;;;8.60;;
3781;SDS011;6881;49.962;7.718;2024-02-26T06:30:16;12.37;;;8.30;;
3781;SDS011;6881;49.962;7.718;2024-02-26T06:32:41;14.90;;;9.17;;
3781;SDS011;6881;49.962;7.718;2024-02-26T06:35:07;13.10;;;9.83;;
3781;SDS011;6881;49.962;7.718;2024-02-26T06:37:34;11.27;;;9.07;;
3781;SDS011;6881;49.962;7.718;2024-02-26T06:40:00;14.27;;;10.23;;
3781;SDS011;6881;49.962;7.718;2024-02-26T06:42:25;12.20;;;9.93;;
3781;SDS011;6881;49.962;7.718;2024-02-26T06:44:51;14.30;;;10.00;;
3781;SDS011;6881;49.962;7.718;2024-02-26T06:47:16;14.97;;;10.97;;
3781;SDS011;6881;49.962;7.718;2024-02-26T06:49:41;14.90;;;10.17;;
3781;SDS011;6881;49.962;7.718;2024-02-26T06:52:07;16.30;;;11.90;;
3781;SDS011;6881;49.962;7.718;2024-02-26T06:54:32;13.83;;;10.50;;
3781;SDS011;6881;49.962;7.718;2024-02-26T06:56:57;16.00;;;10.90;;
3781;SDS011;6881;49.962;7.718;2024-02-26T06:59:23;12.90;;;10.33;;
3781;SDS011;6881;49.962;7.718;2024-02-26T07:01:49;13.83;;;9.87;;
3781;SDS011;6881;49.962;7.718;2024-02-26T07:04:14;14.93;;;10.40;;
3781;SDS011;6881;49.962;7.718;2024-02-26T07:06:39;13.27;;;10.60;;
3781;SDS011;6881;49.962;7.718;2024-02-26T07:09:06;15.13;;;10.67;;
3781;SDS011;6881;49.962;7.718;2024-02-26T07:11:31;14.70;;;10.53;;
3781;SDS011;6881;49.962;7.718;2024-02-26T07:13:57;12.70;;;10.87;;
3781;SDS011;6881;49.962;7.718;2024-02-26T07:16:22;11.87;;;9.93;;
3781;SDS011;6881;49.962;7.718;2024-02-26T07:18:47;14.73;;;10.27;;
3781;SDS011;6881;49.962;7.718;2024-02-26T07:21:13;16.03;;;11.37;;
3781;SDS011;6881;49.962;7.718;2024-02-26T07:23:38;17.90;;;10.60;;
3781;SDS011;6881;49.962;7.718;2024-02-26T07:26:03;12.37;;;9.60;;
3781;SDS011;6881;49.962;7.718;2024-02-26T07:28:29;12.73;;;10.07;;
3781;SDS011;6881;49.962;7.718;2024-02-26T07:30:54;13.80;;;9.33;;
3781;SDS011;6881;49.962;7.718;2024-02-26T07:33:19;12.07;;;8.07;;
3781;SDS011;6881;49.962;7.718;2024-02-26T07:35:45;13.97;;;10.60;;
3781;SDS011;6881;49.962;7.718;2024-02-26T07:38:10;10.63;;;9.10;;
3781;SDS011;6881;49.962;7.718;2024-02-26T07:40:36;12.53;;;9.10;;
3781;SDS011;6881;49.962;7.718;2024-02-26T07:43:01;12.60;;;9.07;;
3781;SDS011;6881;49.962;7.718;2024-02-26T07:45:26;10.17;;;8.93;;
3781;SDS011;6881;49.962;7.718;2024-02-26T07:47:52;10.47;;;7.27;;
3781;SDS011;6881;49.962;7.718;2024-02-26T07:50:17;9.67;;;8.60;;
3781;SDS011;6881;49.962;7.718;2024-02-26T07:52:43;9.60;;;8.63;;
3781;SDS011;6881;49.962;7.718;2024-02-26T07:55:09;9.93;;;8.63;;
3781;SDS011;6881;49.962;7.718;2024-02-26T07:57:35;11.67;;;8.87;;
3781;SDS011;6881;49.962;7.718;2024-02-26T08:00:01;10.60;;;8.97;;
3781;SDS011;6881;49.962;7.718;2024-02-26T08:02:27;10.33;;;8.60;;
3781;SDS011;6881;49.962;7.718;2024-02-26T08:04:52;9.30;;;7.93;;
3781;SDS011;6881;49.962;7.718;2024-02-26T08:07:18;13.10;;;9.30;;
3781;SDS011;6881;49.962;7.718;2024-02-26T08:09:44;10.90;;;8.70;;
3781;SDS011;6881;49.962;7.718;2024-02-26T08:12:11;11.77;;;9.57;;
3781;SDS011;6881;49.962;7.718;2024-02-26T08:14:36;10.80;;;8.27;;
3781;SDS011;6881;49.962;7.718;2024-02-26T08:17:01;9.57;;;7.73;;
3781;SDS011;6881;49.962;7.718;2024-02-26T08:19:27;11.20;;;8.20;;
3781;SDS011;6881;49.962;7.718;2024-02-26T08:21:52;13.10;;;9.50;;
3781;SDS011;6881;49.962;7.718;2024-02-26T08:24:17;9.43;;;8.43;;
3781;SDS011;6881;49.962;7.718;2024-02-26T08:26:43;15.30;;;9.30;;
3781;SDS011;6881;49.962;7.718;2024-02-26T08:29:08;10.63;;;9.53;;
3781;SDS011;6881;49.962;7.718;2024-02-26T08:31:33;8.97;;;7.70;;
3781;SDS011;6881;49.962;7.718;2024-02-26T08:34:02;9.77;;;7.70;;
3781;SDS011;6881;49.962;7.718;2024-02-26T08:36:28;9.93;;;8.10;;
3781;SDS011;6881;49.962;7.718;2024-02-26T08:38:53;9.67;;;8.17;;
3781;SDS011;6881;49.962;7.718;2024-02-26T08:41:18;12.37;;;9.47;;
3781;SDS011;6881;49.962;7.718;2024-02-26T08:43:44;11.80;;;8.80;;
3781;SDS011;6881;49.962;7.718;2024-02-26T08:46:09;11.20;;;9.50;;
3781;SDS011;6881;49.962;7.718;2024-02-26T08:48:35;10.67;;;8.50;;
3781;SDS011;6881;49.962;7.718;2024-02-26T08:51:04;9.33;;;8.13;;
3781;SDS011;6881;49.962;7.718;2024-02-26T08:53:30;10.43;;;8.27;;
3781;SDS011;6881;49.962;7.718;2024-02-26T08:55:55;12.20;;;8.63;;
3781;SDS011;6881;49.962;7.718;2024-02-26T08:58:21;10.23;;;7.97;;
3781;SDS011;6881;49.962;7.718;2024-02-26T09:00:46;10.50;;;9.03;;
3781;SDS011;6881;49.962;7.718;2024-02-26T09:03:12;9.47;;;8.23;;
3781;SDS011;6881;49.962;7.718;2024-02-26T09:05:37;10.23;;;8.87;;
3781;SDS011;6881;49.962;7.718;2024-02-26T09:08:02;9.00;;;8.10;;
3781;SDS011;6881;49.962;7.718;2024-02-26T09:10:28;12.23;;;8.43;;
3781;SDS011;6881;49.962;7.718;2024-02-26T09:12:53;10.87;;;7.20;;
3781;SDS011;6881;49.962;7.718;2024-02-26T09:15:20;9.13;;;7.87;;
3781;SDS011;6881;49.962;7.718;2024-02-26T09:17:45;11.67;;;7.83;;
3781;SDS011;6881;49.962;7.718;2024-02-26T09:20:11;10.10;;;7.20;;
3781;SDS011;6881;49.962;7.718;2024-02-26T09:22:38;14.20;;;8.30;;
3781;SDS011;6881;49.962;7.718;2024-02-26T09:25:04;11.43;;;8.80;;
3781;SDS011;6881;49.962;7.718;2024-02-26T09:27:30;10.37;;;8.50;;
3781;SDS011;6881;49.962;7.718;2024-02-26T09:29:55;10.63;;;7.90;;
3781;SDS011;6881;49.962;7.718;2024-02-26T09:32:21;11.70;;;8.97;;
3781;SDS011;6881;49.962;7.718;2024-02-26T09:34:46;11.10;;;8.67;;
3781;SDS011;6881;49.962;7.718;2024-02-26T09:37:11;12.20;;;10.10;;
3781;SDS011;6881;49.962;7.718;2024-02-26T09:39:37;14.00;;;11.27;;
3781;SDS011;6881;49.962;7.718;2024-02-26T09:42:04;12.13;;;8.90;;
3781;SDS011;6881;49.962;7.718;2024-02-26T09:44:30;12.67;;;9.87;;
3781;SDS011;6881;49.962;7.718;2024-02-26T09:46:58;14.10;;;9.87;;
3781;SDS011;6881;49.962;7.718;2024-02-26T09:49:24;12.07;;;9.20;;
3781;SDS011;6881;49.962;7.718;2024-02-26T09:51:49;10.67;;;8.43;;
3781;SDS011;6881;49.962;7.718;2024-02-26T09:54:16;10.27;;;8.33;;
3781;SDS011;6881;49.962;7.718;2024-02-26T09:56:41;12.60;;;10.20;;
3781;SDS011;6881;49.962;7.718;2024-02-26T09:59:10;15.87;;;10.40;;
3781;SDS011;6881;49.962;7.718;2024-02-26T10:01:36;12.60;;;9.77;;
3781;SDS011;6881;49.962;7.718;2024-02-26T10:04:01;12.33;;;9.70;;
3781;SDS011;6881;49.962;7.718;2024-02-26T10:06:27;12.97;;;10.37;;
3781;SDS011;6881;49.962;7.718;2024-02-26T10:08:54;12.27;;;9.40;;
3781;SDS011;6881;49.962;7.718;2024-02-26T10:11:20;13.47;;;9.97;;
3781;SDS011;6881;49.962;7.718;2024-02-26T10:13:45;11.20;;;8.80;;
3781;SDS011;6881;49.962;7.718;2024-02-26T10:16:11;12.00;;;8.57;;
3781;SDS011;6881;49.962;7.718;2024-02-26T10:18:49;14.33;;;8.73;;
3781;SDS011;6881;49.962;7.718;2024-02-26T10:21:18;10.77;;;9.00;;
3781;SDS011;6881;49.962;7.718;2024-02-26T10:23:44;12.10;;;9.90;;
3781;SDS011;6881;49.962;7.718;2024-02-26T10:26:10;11.23;;;9.03;;
3781;SDS011;6881;49.962;7.718;2024-02-26T10:28:41;10.77;;;9.67;;
3781;SDS011;6881;49.962;7.718;2024-02-26T10:31:07;10.50;;;8.67;;
3781;SDS011;6881;49.962;7.718;2024-02-26T10:33:33;10.83;;;8.83;;
3781;SDS011;6881;49.962;7.718;2024-02-26T10:36:01;11.00;;;8.87;;
3781;SDS011;6881;49.962;7.718;2024-02-26T10:38:26;11.23;;;8.70;;
3781;SDS011;6881;49.962;7.718;2024-02-26T10:40:52;8.03;;;7.20;;
3781;SDS011;6881;49.962;7.718;2024-02-26T10:43:17;11.90;;;9.20;;
3781;SDS011;6881;49.962;7.718;2024-02-26T10:45:43;10.53;;;8.00;;
3781;SDS011;6881;49.962;7.718;2024-02-26T10:48:09;9.67;;;8.43;;
3781;SDS011;6881;49.962;7.718;2024-02-26T10:50:36;10.80;;;8.97;;
3781;SDS011;6881;49.962;7.718;2024-02-26T10:53:01;13.07;;;7.60;;
3781;SDS011;6881;49.962;7.718;2024-02-26T10:55:28;8.93;;;8.07;;
3781;SDS011;6881;49.962;7.718;2024-02-26T10:57:53;11.30;;;8.47;;
3781;SDS011;6881;49.962;7.718;2024-02-26T11:00:19;11.27;;;8.80;;
3781;SDS011;6881;49.962;7.718;2024-02-26T11:02:45;11.10;;;8.00;;
3781;SDS011;6881;49.962;7.718;2024-02-26T11:05:13;9.00;;;8.10;;
3781;SDS011;6881;49.962;7.718;2024-02-26T11:07:39;11.67;;;9.70;;
3781;SDS011;6881;49.962;7.718;2024-02-26T11:10:06;11.23;;;8.60;;
3781;SDS011;6881;49.962;7.718;2024-02-26T11:12:32;11.10;;;9.30;;
3781;SDS011;6881;49.962;7.718;2024-02-26T11:15:00;11.97;;;8.37;;
3781;SDS011;6881;49.962;7.718;2024-02-26T11:17:27;12.13;;;9.07;;
3781;SDS011;6881;49.962;7.718;2024-02-26T11:19:56;13.27;;;9.30;;
3781;SDS011;6881;49.962;7.718;2024-02-26T11:22:23;14.77;;;10.30;;
3781;SDS011;6881;49.962;7.718;2024-02-26T11:24:51;14.23;;;9.73;;
3781;SDS011;6881;49.962;7.718;2024-02-26T11:27:17;13.20;;;11.17;;
3781;SDS011;6881;49.962;7.718;2024-02-26T11:29:44;14.20;;;10.30;;
3781;SDS011;6881;49.962;7.718;2024-02-26T11:32:13;13.43;;;10.07;;
3781;SDS011;6881;49.962;7.718;2024-02-26T11:34:39;11.83;;;10.37;;
3781;SDS011;6881;49.962;7.718;2024-02-26T11:37:11;16.80;;;9.10;;
3781;SDS011;6881;49.962;7.718;2024-02-26T11:39:41;14.70;;;10.70;;
3781;SDS011;6881;49.962;7.718;2024-02-26T11:42:08;13.40;;;10.63;;
3781;SDS011;6881;49.962;7.718;2024-02-26T11:44:34;13.53;;;10.50;;
3781;SDS011;6881;49.962;7.718;2024-02-26T11:47:09;16.70;;;12.97;;
3781;SDS011;6881;49.962;7.718;2024-02-26T11:49:38;17.10;;;11.57;;
3781;SDS011;6881;49.962;7.718;2024-02-26T11:52:08;15.20;;;12.03;;
3781;SDS011;6881;49.962;7.718;2024-02-26T11:59:53;15.43;;;11.70;;
3781;SDS011;6881;49.962;7.718;2024-02-26T12:02:44;15.60;;;11.63;;
3781;SDS011;6881;49.962;7.718;2024-02-26T12:05:17;14.37;;;12.27;;
3781;SDS011;6881;49.962;7.718;2024-02-26T12:07:48;19.10;;;13.57;;
3781;SDS011;6881;49.962;7.718;2024-02-26T12:10:30;16.60;;;13.50;;
3781;SDS011;6881;49.962;7.718;2024-02-26T12:13:05;19.07;;;12.40;;
3781;SDS011;6881;49.962;7.718;2024-02-26T12:15:39;17.30;;;13.50;;
3781;SDS011;6881;49.962;7.718;2024-02-26T12:18:07;15.57;;;12.90;;
3781;SDS011;6881;49.962;7.718;2024-02-26T12:20:33;15.83;;;13.07;;
3781;SDS011;6881;49.962;7.718;2024-02-26T12:22:58;17.30;;;12.83;;
3781;SDS011;6881;49.962;7.718;2024-02-26T12:25:25;20.00;;;14.17;;
3781;SDS011;6881;49.962;7.718;2024-02-26T12:27:52;16.87;;;13.47;;
3781;SDS011;6881;49.962;7.718;2024-02-26T12:30:18;13.77;;;12.20;;
3781;SDS011;6881;49.962;7.718;2024-02-26T12:32:44;16.77;;;12.43;;
3781;SDS011;6881;49.962;7.718;2024-02-26T12:35:10;15.80;;;12.03;;
3781;SDS011;6881;49.962;7.718;2024-02-26T12:37:35;16.40;;;12.03;;
3781;SDS011;6881;49.962;7.718;2024-02-26T12:40:03;16.47;;;12.83;;
3781;SDS011;6881;49.962;7.718;2024-02-26T12:42:30;15.03;;;11.47;;
3781;SDS011;6881;49.962;7.718;2024-02-26T12:44:58;20.10;;;11.90;;
3781;SDS011;6881;49.962;7.718;2024-02-26T12:47:23;13.27;;;10.13;;
3781;SDS011;6881;49.962;7.718;2024-02-26T12:49:49;12.10;;;10.60;;
3781;SDS011;6881;49.962;7.718;2024-02-26T12:52:14;11.03;;;8.53;;
3781;SDS011;6881;49.962;7.718;2024-02-26T12:54:41;12.93;;;9.43;;
3781;SDS011;6881;49.962;7.718;2024-02-26T12:57:07;13.23;;;9.97;;
3781;SDS011;6881;49.962;7.718;2024-02-26T12:59:34;12.93;;;9.87;;
3781;SDS011;6881;49.962;7.718;2024-02-26T13:01:59;10.30;;;8.80;;
3781;SDS011;6881;49.962;7.718;2024-02-26T13:04:26;10.40;;;9.17;;
3781;SDS011;6881;49.962;7.718;2024-02-26T13:06:53;10.33;;;9.30;;
3781;SDS011;6881;49.962;7.718;2024-02-26T13:09:18;10.77;;;9.33;;
3781;SDS011;6881;49.962;7.718;2024-02-26T13:11:44;13.60;;;9.70;;
3781;SDS011;6881;49.962;7.718;2024-02-26T13:14:19;10.57;;;9.10;;
3781;SDS011;6881;49.962;7.718;2024-02-26T13:16:56;10.30;;;8.80;;
3781;SDS011;6881;49.962;7.718;2024-02-26T13:19:22;13.70;;;9.70;;
3781;SDS011;6881;49.962;7.718;2024-02-26T13:21:47;10.80;;;9.30;;
3781;SDS011;6881;49.962;7.718;2024-02-26T13:24:13;9.83;;;8.83;;
3781;SDS011;6881;49.962;7.718;2024-02-26T13:26:38;10.43;;;8.47;;
3781;SDS011;6881;49.962;7.718;2024-02-26T13:29:04;13.30;;;9.17;;
3781;SDS011;6881;49.962;7.718;2024-02-26T13:31:30;10.73;;;9.10;;
3781;SDS011;6881;49.962;7.718;2024-02-26T13:33:55;9.23;;;8.17;;
3781;SDS011;6881;49.962;7.718;2024-02-26T13:36:21;11.20;;;8.40;;
3781;SDS011;6881;49.962;7.718;2024-02-26T13:38:54;11.70;;;7.97;;
3781;SDS011;6881;49.962;7.718;2024-02-26T13:41:20;9.33;;;8.13;;
3781;SDS011;6881;49.962;7.718;2024-02-26T13:43:46;10.40;;;8.53;;
3781;SDS011;6881;49.962;7.718;2024-02-26T13:46:12;10.40;;;8.63;;
3781;SDS011;6881;49.962;7.718;2024-02-26T13:48:40;8.70;;;6.60;;
3781;SDS011;6881;49.962;7.718;2024-02-26T13:51:05;9.73;;;8.67;;
3781;SDS011;6881;49.962;7.718;2024-02-26T13:53:31;11.20;;;8.77;;
3781;SDS011;6881;49.962;7.718;2024-02-26T13:55:56;8.20;;;7.30;;
3781;SDS011;6881;49.962;7.718;2024-02-26T13:58:23;8.83;;;7.93;;
3781;SDS011;6881;49.962;7.718;2024-02-26T14:00:49;11.37;;;8.63;;
3781;SDS011;6881;49.962;7.718;2024-02-26T14:03:15;11.23;;;9.07;;
3781;SDS011;6881;49.962;7.718;2024-02-26T14:05:41;10.70;;;9.33;;
3781;SDS011;6881;49.962;7.718;2024-02-26T14:08:06;11.03;;;9.23;;
3781;SDS011;6881;49.962;7.718;2024-02-26T14:10:31;10.97;;;9.20;;
3781;SDS011;6881;49.962;7.718;2024-02-26T14:12:57;12.03;;;9.13;;
3781;SDS011;6881;49.962;7.718;2024-02-26T14:15:24;9.80;;;8.20;;
3781;SDS011;6881;49.962;7.718;2024-02-26T14:17:50;10.60;;;8.90;;
3781;SDS011;6881;49.962;7.718;2024-02-26T14:20:19;12.90;;;9.60;;
3781;SDS011;6881;49.962;7.718;2024-02-26T14:22:45;13.33;;;11.43;;
3781;SDS011;6881;49.962;7.718;2024-02-26T14:25:11;11.53;;;9.77;;
3781;SDS011;6881;49.962;7.718;2024-02-26T14:27:36;12.83;;;10.80;;
3781;SDS011;6881;49.962;7.718;2024-02-26T14:30:02;12.27;;;10.60;;
3781;SDS011;6881;49.962;7.718;2024-02-26T14:32:28;10.30;;;9.20;;
3781;SDS011;6881;49.962;7.718;2024-02-26T14:34:53;11.40;;;9.33;;
3781;SDS011;6881;49.962;7.718;2024-02-26T14:37:18;11.37;;;9.00;;
3781;SDS011;6881;49.962;7.718;2024-02-26T14:39:43;9.67;;;8.30;;
3781;SDS011;6881;49.962;7.718;2024-02-26T14:42:09;11.27;;;10.10;;
3781;SDS011;6881;49.962;7.718;2024-02-26T14:44:34;10.57;;;9.10;;
3781;SDS011;6881;49.962;7.718;2024-02-26T14:46:59;11.83;;;9.50;;
3781;SDS011;6881;49.962;7.718;2024-02-26T14:49:25;9.57;;;8.53;;
3781;SDS011;6881;49.962;7.718;2024-02-26T14:51:50;10.53;;;9.33;;
3781;SDS011;6881;49.962;7.718;2024-02-26T14:54:15;15.70;;;8.57;;
3781;SDS011;6881;49.962;7.718;2024-02-26T14:56:41;10.33;;;9.00;;
3781;SDS011;6881;49.962;7.718;2024-02-26T14:59:06;10.63;;;8.27;;
3781;SDS011;6881;49.962;7.718;2024-02-26T15:01:32;9.30;;;8.13;;
3781;SDS011;6881;49.962;7.718;2024-02-26T15:03:57;9.80;;;7.80;;